sensor_id;sensor_type;location;lat;lon;timestamp;P1;durP1;ratioP1;P2;durP2;ratioP2
14892;SDS011;7538;53.626;9.906;2023-10-08T00:01:02;14.00;;;7.30;;
14892;SDS011;7538;53.626;9.906;2023-10-08T00:03:31;18.33;;;8.50;;
14892;SDS011;7538;53.626;9.906;2023-10-08T00:05:58;21.08;;;8.93;;
14892;SDS011;7538;53.626;9.906;2023-10-08T00:08:31;19.98;;;8.35;;
14892;SDS011;7538;53.626;9.906;2023-10-08T00:10:58;19.83;;;8.80;;
14892;SDS011;7538;53.626;9.906;2023-10-08T00:13:32;25.90;;;8.93;;
14892;SDS011;7538;53.626;9.906;2023-10-08T00:16:04;21.55;;;9.50;;
14892;SDS011;7538;53.626;9.906;2023-10-08T00:18:34;14.60;;;7.10;;
14892;SDS011;7538;53.626;9.906;2023-10-08T00:21:01;18.33;;;7.72;;
14892;SDS011;7538;53.626;9.906;2023-10-08T00:23:41;21.48;;;8.13;;
14892;SDS011;7538;53.626;9.906;2023-10-08T00:26:13;16.27;;;7.30;;
14892;SDS011;7538;53.626;9.906;2023-10-08T00:28:45;14.75;;;7.00;;
14892;SDS011;7538;53.626;9.906;2023-10-08T00:31:12;19.85;;;7.53;;
14892;SDS011;7538;53.626;9.906;2023-10-08T00:33:42;18.75;;;6.40;;
14892;SDS011;7538;53.626;9.906;2023-10-08T00:36:10;12.80;;;5.95;;
14892;SDS011;7538;53.626;9.906;2023-10-08T00:38:44;17.55;;;6.95;;
14892;SDS011;7538;53.626;9.906;2023-10-08T00:41:14;19.92;;;5.97;;
14892;SDS011;7538;53.626;9.906;2023-10-08T00:43:42;14.98;;;5.55;;
14892;SDS011;7538;53.626;9.906;2023-10-08T00:46:11;13.70;;;4.90;;
14892;SDS011;7538;53.626;9.906;2023-10-08T00:48:47;17.75;;;5.63;;
14892;SDS011;7538;53.626;9.906;2023-10-08T00:51:14;13.10;;;5.47;;
14892;SDS011;7538;53.626;9.906;2023-10-08T00:53:52;11.77;;;4.85;;
14892;SDS011;7538;53.626;9.906;2023-10-08T00:56:24;13.60;;;4.32;;
14892;SDS011;7538;53.626;9.906;2023-10-08T00:59:10;10.57;;;4.50;;
14892;SDS011;7538;53.626;9.906;2023-10-08T01:01:40;10.95;;;3.55;;
14892;SDS011;7538;53.626;9.906;2023-10-08T01:04:14;11.50;;;4.03;;
14892;SDS011;7538;53.626;9.906;2023-10-08T01:06:42;12.25;;;3.65;;
14892;SDS011;7538;53.626;9.906;2023-10-08T01:09:10;9.55;;;3.35;;
14892;SDS011;7538;53.626;9.906;2023-10-08T01:11:43;11.45;;;3.42;;
14892;SDS011;7538;53.626;9.906;2023-10-08T01:14:14;9.40;;;3.40;;
14892;SDS011;7538;53.626;9.906;2023-10-08T01:16:47;12.10;;;3.72;;
14892;SDS011;7538;53.626;9.906;2023-10-08T01:19:17;10.30;;;3.72;;
14892;SDS011;7538;53.626;9.906;2023-10-08T01:21:45;12.93;;;3.97;;
14892;SDS011;7538;53.626;9.906;2023-10-08T01:24:14;8.38;;;3.38;;
14892;SDS011;7538;53.626;9.906;2023-10-08T01:26:43;8.63;;;3.60;;
14892;SDS011;7538;53.626;9.906;2023-10-08T01:29:10;10.27;;;3.20;;
14892;SDS011;7538;53.626;9.906;2023-10-08T01:31:44;11.48;;;3.22;;
14892;SDS011;7538;53.626;9.906;2023-10-08T01:34:11;11.90;;;4.18;;
14892;SDS011;7538;53.626;9.906;2023-10-08T01:36:43;10.50;;;3.38;;
14892;SDS011;7538;53.626;9.906;2023-10-08T01:39:10;6.95;;;3.03;;
14892;SDS011;7538;53.626;9.906;2023-10-08T01:41:43;9.35;;;3.40;;
14892;SDS011;7538;53.626;9.906;2023-10-08T01:44:11;13.52;;;4.22;;
14892;SDS011;7538;53.626;9.906;2023-10-08T01:46:38;11.32;;;3.38;;
14892;SDS011;7538;53.626;9.906;2023-10-08T01:49:06;9.50;;;3.55;;
14892;SDS011;7538;53.626;9.906;2023-10-08T01:51:39;7.45;;;3.20;;
14892;SDS011;7538;53.626;9.906;2023-10-08T01:54:11;9.88;;;3.72;;
14892;SDS011;7538;53.626;9.906;2023-10-08T01:56:41;7.35;;;3.25;;
14892;SDS011;7538;53.626;9.906;2023-10-08T01:59:10;7.90;;;3.15;;
14892;SDS011;7538;53.626;9.906;2023-10-08T02:01:39;9.68;;;3.10;;
14892;SDS011;7538;53.626;9.906;2023-10-08T02:04:06;11.27;;;4.13;;
14892;SDS011;7538;53.626;9.906;2023-10-08T02:06:34;8.02;;;3.05;;
14892;SDS011;7538;53.626;9.906;2023-10-08T02:09:01;6.55;;;2.85;;
14892;SDS011;7538;53.626;9.906;2023-10-08T02:11:40;9.70;;;3.17;;
14892;SDS011;7538;53.626;9.906;2023-10-08T02:14:15;6.68;;;3.00;;
14892;SDS011;7538;53.626;9.906;2023-10-08T02:16:42;9.88;;;3.47;;
14892;SDS011;7538;53.626;9.906;2023-10-08T02:19:09;7.28;;;3.38;;
14892;SDS011;7538;53.626;9.906;2023-10-08T02:21:36;7.30;;;2.90;;
14892;SDS011;7538;53.626;9.906;2023-10-08T02:24:07;8.43;;;3.17;;
14892;SDS011;7538;53.626;9.906;2023-10-08T02:26:36;11.00;;;3.90;;
14892;SDS011;7538;53.626;9.906;2023-10-08T02:29:04;7.13;;;2.60;;
14892;SDS011;7538;53.626;9.906;2023-10-08T02:31:35;12.23;;;3.42;;
14892;SDS011;7538;53.626;9.906;2023-10-08T02:34:02;4.25;;;2.50;;
14892;SDS011;7538;53.626;9.906;2023-10-08T02:36:32;4.78;;;2.55;;
14892;SDS011;7538;53.626;9.906;2023-10-08T02:39:01;11.80;;;3.38;;
14892;SDS011;7538;53.626;9.906;2023-10-08T02:41:32;10.02;;;3.15;;
14892;SDS011;7538;53.626;9.906;2023-10-08T02:43:59;5.82;;;2.63;;
14892;SDS011;7538;53.626;9.906;2023-10-08T02:46:27;4.82;;;2.63;;
14892;SDS011;7538;53.626;9.906;2023-10-08T02:48:58;5.97;;;2.90;;
14892;SDS011;7538;53.626;9.906;2023-10-08T02:51:28;7.57;;;2.65;;
14892;SDS011;7538;53.626;9.906;2023-10-08T02:53:55;5.35;;;2.55;;
14892;SDS011;7538;53.626;9.906;2023-10-08T02:56:22;7.05;;;2.53;;
14892;SDS011;7538;53.626;9.906;2023-10-08T02:58:49;5.95;;;2.53;;
14892;SDS011;7538;53.626;9.906;2023-10-08T03:01:16;8.20;;;2.65;;
14892;SDS011;7538;53.626;9.906;2023-10-08T03:03:44;7.80;;;2.63;;
14892;SDS011;7538;53.626;9.906;2023-10-08T03:06:12;6.20;;;2.25;;
14892;SDS011;7538;53.626;9.906;2023-10-08T03:08:40;7.18;;;2.17;;
14892;SDS011;7538;53.626;9.906;2023-10-08T03:11:08;4.30;;;2.13;;
14892;SDS011;7538;53.626;9.906;2023-10-08T03:13:42;7.60;;;2.10;;
14892;SDS011;7538;53.626;9.906;2023-10-08T03:16:16;4.88;;;1.77;;
14892;SDS011;7538;53.626;9.906;2023-10-08T03:18:53;6.40;;;2.25;;
14892;SDS011;7538;53.626;9.906;2023-10-08T03:21:22;4.85;;;1.83;;
14892;SDS011;7538;53.626;9.906;2023-10-08T03:24:09;4.10;;;1.92;;
14892;SDS011;7538;53.626;9.906;2023-10-08T03:26:54;3.83;;;1.77;;
14892;SDS011;7538;53.626;9.906;2023-10-08T03:29:30;5.32;;;1.70;;
14892;SDS011;7538;53.626;9.906;2023-10-08T03:31:58;7.13;;;2.05;;
14892;SDS011;7538;53.626;9.906;2023-10-08T03:34:32;4.22;;;1.90;;
14892;SDS011;7538;53.626;9.906;2023-10-08T03:37:03;6.65;;;1.80;;
14892;SDS011;7538;53.626;9.906;2023-10-08T03:39:32;5.57;;;1.65;;
14892;SDS011;7538;53.626;9.906;2023-10-08T03:42:12;7.05;;;1.90;;
14892;SDS011;7538;53.626;9.906;2023-10-08T03:44:45;4.38;;;1.60;;
14892;SDS011;7538;53.626;9.906;2023-10-08T03:47:17;5.40;;;1.65;;
14892;SDS011;7538;53.626;9.906;2023-10-08T03:49:48;3.53;;;1.55;;
14892;SDS011;7538;53.626;9.906;2023-10-08T03:52:16;3.42;;;1.77;;
14892;SDS011;7538;53.626;9.906;2023-10-08T03:54:47;3.03;;;1.50;;
14892;SDS011;7538;53.626;9.906;2023-10-08T03:57:28;4.82;;;1.50;;
14892;SDS011;7538;53.626;9.906;2023-10-08T04:00:06;5.13;;;1.88;;
14892;SDS011;7538;53.626;9.906;2023-10-08T04:02:37;4.80;;;1.80;;
14892;SDS011;7538;53.626;9.906;2023-10-08T04:05:07;3.72;;;1.73;;
14892;SDS011;7538;53.626;9.906;2023-10-08T04:07:44;3.90;;;1.60;;
14892;SDS011;7538;53.626;9.906;2023-10-08T04:10:35;4.63;;;2.10;;
14892;SDS011;7538;53.626;9.906;2023-10-08T04:13:33;6.78;;;2.00;;
14892;SDS011;7538;53.626;9.906;2023-10-08T04:16:00;5.18;;;1.95;;
14892;SDS011;7538;53.626;9.906;2023-10-08T04:18:29;5.45;;;1.67;;
14892;SDS011;7538;53.626;9.906;2023-10-08T04:20:59;8.98;;;2.03;;
14892;SDS011;7538;53.626;9.906;2023-10-08T04:23:37;4.00;;;1.90;;
14892;SDS011;7538;53.626;9.906;2023-10-08T04:26:05;3.13;;;1.58;;
14892;SDS011;7538;53.626;9.906;2023-10-08T04:28:32;3.53;;;1.52;;
14892;SDS011;7538;53.626;9.906;2023-10-08T04:31:00;2.78;;;1.50;;
14892;SDS011;7538;53.626;9.906;2023-10-08T04:33:39;4.25;;;1.83;;
14892;SDS011;7538;53.626;9.906;2023-10-08T04:36:09;4.82;;;1.65;;
14892;SDS011;7538;53.626;9.906;2023-10-08T04:38:43;6.85;;;1.80;;
14892;SDS011;7538;53.626;9.906;2023-10-08T04:41:12;5.75;;;1.85;;
14892;SDS011;7538;53.626;9.906;2023-10-08T04:43:44;6.68;;;1.92;;
14892;SDS011;7538;53.626;9.906;2023-10-08T04:46:11;5.38;;;2.08;;
14892;SDS011;7538;53.626;9.906;2023-10-08T04:49:05;2.13;;;1.67;;
14892;SDS011;7538;53.626;9.906;2023-10-08T04:51:44;8.00;;;1.75;;
14892;SDS011;7538;53.626;9.906;2023-10-08T04:54:11;4.13;;;1.85;;
14892;SDS011;7538;53.626;9.906;2023-10-08T04:56:41;5.10;;;1.60;;
14892;SDS011;7538;53.626;9.906;2023-10-08T04:59:07;6.22;;;1.70;;
14892;SDS011;7538;53.626;9.906;2023-10-08T05:01:36;6.20;;;1.52;;
14892;SDS011;7538;53.626;9.906;2023-10-08T05:04:12;7.22;;;1.70;;
14892;SDS011;7538;53.626;9.906;2023-10-08T05:06:59;3.65;;;1.73;;
14892;SDS011;7538;53.626;9.906;2023-10-08T05:09:45;4.72;;;1.70;;
14892;SDS011;7538;53.626;9.906;2023-10-08T05:12:17;3.63;;;1.90;;
14892;SDS011;7538;53.626;9.906;2023-10-08T05:14:59;6.00;;;2.08;;
14892;SDS011;7538;53.626;9.906;2023-10-08T05:17:58;4.72;;;1.60;;
14892;SDS011;7538;53.626;9.906;2023-10-08T05:20:38;4.32;;;1.92;;
14892;SDS011;7538;53.626;9.906;2023-10-08T05:23:25;5.47;;;2.03;;
14892;SDS011;7538;53.626;9.906;2023-10-08T05:26:09;3.35;;;1.65;;
14892;SDS011;7538;53.626;9.906;2023-10-08T05:28:45;3.33;;;1.70;;
14892;SDS011;7538;53.626;9.906;2023-10-08T05:31:25;3.83;;;1.75;;
14892;SDS011;7538;53.626;9.906;2023-10-08T05:34:11;5.00;;;1.88;;
14892;SDS011;7538;53.626;9.906;2023-10-08T05:36:43;3.92;;;1.70;;
14892;SDS011;7538;53.626;9.906;2023-10-08T05:39:37;6.80;;;1.90;;
14892;SDS011;7538;53.626;9.906;2023-10-08T05:42:12;5.70;;;1.90;;
14892;SDS011;7538;53.626;9.906;2023-10-08T05:44:42;5.40;;;1.70;;
14892;SDS011;7538;53.626;9.906;2023-10-08T05:47:31;2.80;;;1.60;;
14892;SDS011;7538;53.626;9.906;2023-10-08T05:50:26;3.10;;;1.85;;
14892;SDS011;7538;53.626;9.906;2023-10-08T05:53:07;3.67;;;1.92;;
14892;SDS011;7538;53.626;9.906;2023-10-08T05:55:46;3.13;;;1.88;;
14892;SDS011;7538;53.626;9.906;2023-10-08T05:58:26;4.53;;;2.10;;
14892;SDS011;7538;53.626;9.906;2023-10-08T06:01:00;3.15;;;2.30;;
14892;SDS011;7538;53.626;9.906;2023-10-08T06:03:33;2.40;;;2.20;;
14892;SDS011;7538;53.626;9.906;2023-10-08T06:06:05;4.95;;;2.30;;
14892;SDS011;7538;53.626;9.906;2023-10-08T06:09:03;3.70;;;2.25;;
14892;SDS011;7538;53.626;9.906;2023-10-08T06:11:57;4.03;;;2.10;;
14892;SDS011;7538;53.626;9.906;2023-10-08T06:14:44;4.82;;;2.20;;
14892;SDS011;7538;53.626;9.906;2023-10-08T06:17:32;3.50;;;2.03;;
14892;SDS011;7538;53.626;9.906;2023-10-08T06:20:16;4.18;;;1.80;;
14892;SDS011;7538;53.626;9.906;2023-10-08T06:22:50;3.95;;;1.90;;
14892;SDS011;7538;53.626;9.906;2023-10-08T06:25:19;3.00;;;1.92;;
14892;SDS011;7538;53.626;9.906;2023-10-08T06:27:50;4.60;;;2.08;;
14892;SDS011;7538;53.626;9.906;2023-10-08T06:30:20;5.25;;;1.95;;
14892;SDS011;7538;53.626;9.906;2023-10-08T06:32:48;4.18;;;1.90;;
14892;SDS011;7538;53.626;9.906;2023-10-08T06:35:18;2.80;;;1.83;;
14892;SDS011;7538;53.626;9.906;2023-10-08T06:37:50;4.50;;;1.77;;
14892;SDS011;7538;53.626;9.906;2023-10-08T06:40:20;4.15;;;1.77;;
14892;SDS011;7538;53.626;9.906;2023-10-08T06:43:05;3.45;;;1.80;;
14892;SDS011;7538;53.626;9.906;2023-10-08T06:45:39;2.88;;;1.73;;
14892;SDS011;7538;53.626;9.906;2023-10-08T06:48:07;3.05;;;1.80;;
14892;SDS011;7538;53.626;9.906;2023-10-08T06:50:35;2.88;;;1.80;;
14892;SDS011;7538;53.626;9.906;2023-10-08T06:53:02;4.00;;;2.10;;
14892;SDS011;7538;53.626;9.906;2023-10-08T06:55:32;7.55;;;2.15;;
14892;SDS011;7538;53.626;9.906;2023-10-08T06:58:00;4.25;;;1.83;;
14892;SDS011;7538;53.626;9.906;2023-10-08T07:00:32;5.75;;;1.80;;
14892;SDS011;7538;53.626;9.906;2023-10-08T07:03:04;4.30;;;1.60;;
14892;SDS011;7538;53.626;9.906;2023-10-08T07:05:33;4.78;;;1.80;;
14892;SDS011;7538;53.626;9.906;2023-10-08T07:08:06;6.25;;;2.15;;
14892;SDS011;7538;53.626;9.906;2023-10-08T07:10:34;3.67;;;1.67;;
14892;SDS011;7538;53.626;9.906;2023-10-08T07:13:01;6.80;;;1.95;;
14892;SDS011;7538;53.626;9.906;2023-10-08T07:15:29;4.75;;;1.80;;
14892;SDS011;7538;53.626;9.906;2023-10-08T07:17:58;4.07;;;2.00;;
14892;SDS011;7538;53.626;9.906;2023-10-08T07:20:34;2.40;;;1.55;;
14892;SDS011;7538;53.626;9.906;2023-10-08T07:23:05;4.47;;;1.92;;
14892;SDS011;7538;53.626;9.906;2023-10-08T07:25:43;6.40;;;1.92;;
14892;SDS011;7538;53.626;9.906;2023-10-08T07:28:32;7.80;;;2.33;;
14892;SDS011;7538;53.626;9.906;2023-10-08T07:30:59;5.10;;;1.90;;
14892;SDS011;7538;53.626;9.906;2023-10-08T07:33:29;5.65;;;1.73;;
14892;SDS011;7538;53.626;9.906;2023-10-08T07:36:01;6.07;;;1.77;;
14892;SDS011;7538;53.626;9.906;2023-10-08T07:38:37;5.55;;;1.75;;
14892;SDS011;7538;53.626;9.906;2023-10-08T07:41:04;4.50;;;1.58;;
14892;SDS011;7538;53.626;9.906;2023-10-08T07:43:31;3.75;;;1.33;;
14892;SDS011;7538;53.626;9.906;2023-10-08T07:45:58;4.68;;;1.67;;
14892;SDS011;7538;53.626;9.906;2023-10-08T07:51:48;3.83;;;1.50;;
14892;SDS011;7538;53.626;9.906;2023-10-08T07:56:52;3.80;;;1.48;;
14892;SDS011;7538;53.626;9.906;2023-10-08T07:59:22;4.78;;;1.60;;
14892;SDS011;7538;53.626;9.906;2023-10-08T08:01:49;3.60;;;1.40;;
14892;SDS011;7538;53.626;9.906;2023-10-08T08:04:17;2.55;;;1.45;;
14892;SDS011;7538;53.626;9.906;2023-10-08T08:06:49;3.08;;;1.60;;
14892;SDS011;7538;53.626;9.906;2023-10-08T08:09:21;5.20;;;1.40;;
14892;SDS011;7538;53.626;9.906;2023-10-08T08:11:51;4.28;;;1.65;;
14892;SDS011;7538;53.626;9.906;2023-10-08T08:14:22;4.45;;;2.03;;
14892;SDS011;7538;53.626;9.906;2023-10-08T08:16:50;4.70;;;1.65;;
14892;SDS011;7538;53.626;9.906;2023-10-08T08:19:17;5.18;;;1.50;;
14892;SDS011;7538;53.626;9.906;2023-10-08T08:21:50;5.38;;;1.67;;
14892;SDS011;7538;53.626;9.906;2023-10-08T08:24:17;2.65;;;1.23;;
14892;SDS011;7538;53.626;9.906;2023-10-08T08:26:53;4.20;;;1.27;;
14892;SDS011;7538;53.626;9.906;2023-10-08T08:29:33;3.05;;;1.42;;
14892;SDS011;7538;53.626;9.906;2023-10-08T08:32:09;4.90;;;1.95;;
14892;SDS011;7538;53.626;9.906;2023-10-08T08:34:38;2.55;;;1.50;;
14892;SDS011;7538;53.626;9.906;2023-10-08T08:37:10;4.60;;;1.63;;
14892;SDS011;7538;53.626;9.906;2023-10-08T08:39:37;3.35;;;1.70;;
14892;SDS011;7538;53.626;9.906;2023-10-08T08:42:04;3.80;;;1.65;;
14892;SDS011;7538;53.626;9.906;2023-10-08T08:44:31;4.53;;;1.92;;
14892;SDS011;7538;53.626;9.906;2023-10-08T08:47:04;4.43;;;1.90;;
14892;SDS011;7538;53.626;9.906;2023-10-08T08:49:33;2.45;;;1.63;;
14892;SDS011;7538;53.626;9.906;2023-10-08T08:52:02;3.85;;;1.83;;
14892;SDS011;7538;53.626;9.906;2023-10-08T08:57:46;4.45;;;1.83;;
14892;SDS011;7538;53.626;9.906;2023-10-08T09:00:14;6.68;;;2.03;;
14892;SDS011;7538;53.626;9.906;2023-10-08T09:02:42;3.33;;;1.70;;
14892;SDS011;7538;53.626;9.906;2023-10-08T09:05:10;4.03;;;1.73;;
14892;SDS011;7538;53.626;9.906;2023-10-08T09:07:52;2.88;;;1.52;;
14892;SDS011;7538;53.626;9.906;2023-10-08T09:10:21;4.72;;;1.60;;
14892;SDS011;7538;53.626;9.906;2023-10-08T09:12:54;3.20;;;1.40;;
14892;SDS011;7538;53.626;9.906;2023-10-08T09:15:23;2.97;;;1.40;;
14892;SDS011;7538;53.626;9.906;2023-10-08T09:17:51;3.10;;;1.60;;
14892;SDS011;7538;53.626;9.906;2023-10-08T09:20:18;4.68;;;1.48;;
14892;SDS011;7538;53.626;9.906;2023-10-08T09:22:46;4.15;;;1.40;;
14892;SDS011;7538;53.626;9.906;2023-10-08T09:25:33;2.58;;;1.55;;
14892;SDS011;7538;53.626;9.906;2023-10-08T09:28:01;2.95;;;1.67;;
14892;SDS011;7538;53.626;9.906;2023-10-08T09:30:32;3.03;;;1.45;;
14892;SDS011;7538;53.626;9.906;2023-10-08T09:33:04;2.88;;;1.40;;
14892;SDS011;7538;53.626;9.906;2023-10-08T09:35:31;6.03;;;1.45;;
14892;SDS011;7538;53.626;9.906;2023-10-08T09:37:58;3.25;;;1.23;;
14892;SDS011;7538;53.626;9.906;2023-10-08T09:40:26;3.60;;;1.42;;
14892;SDS011;7538;53.626;9.906;2023-10-08T09:42:53;3.08;;;1.35;;
14892;SDS011;7538;53.626;9.906;2023-10-08T09:45:22;1.42;;;1.20;;
14892;SDS011;7538;53.626;9.906;2023-10-08T09:47:50;2.75;;;1.38;;
14892;SDS011;7538;53.626;9.906;2023-10-08T09:50:20;1.67;;;1.20;;
14892;SDS011;7538;53.626;9.906;2023-10-08T09:52:55;5.05;;;1.38;;
14892;SDS011;7538;53.626;9.906;2023-10-08T09:55:29;2.50;;;1.52;;
14892;SDS011;7538;53.626;9.906;2023-10-08T09:57:56;2.15;;;1.50;;
14892;SDS011;7538;53.626;9.906;2023-10-08T10:00:24;2.83;;;1.30;;
14892;SDS011;7538;53.626;9.906;2023-10-08T10:02:57;2.40;;;1.48;;
14892;SDS011;7538;53.626;9.906;2023-10-08T10:05:28;2.85;;;1.45;;
14892;SDS011;7538;53.626;9.906;2023-10-08T10:07:56;2.97;;;1.25;;
14892;SDS011;7538;53.626;9.906;2023-10-08T10:10:25;3.83;;;1.30;;
14892;SDS011;7538;53.626;9.906;2023-10-08T10:12:53;5.80;;;1.58;;
14892;SDS011;7538;53.626;9.906;2023-10-08T10:15:26;1.65;;;1.33;;
14892;SDS011;7538;53.626;9.906;2023-10-08T10:17:58;3.72;;;1.58;;
14892;SDS011;7538;53.626;9.906;2023-10-08T10:20:38;3.70;;;1.70;;
14892;SDS011;7538;53.626;9.906;2023-10-08T10:26:01;3.17;;;1.50;;
14892;SDS011;7538;53.626;9.906;2023-10-08T10:28:29;2.10;;;1.10;;
14892;SDS011;7538;53.626;9.906;2023-10-08T10:30:57;3.72;;;1.40;;
14892;SDS011;7538;53.626;9.906;2023-10-08T10:33:29;4.00;;;1.50;;
14892;SDS011;7538;53.626;9.906;2023-10-08T10:35:57;3.03;;;1.30;;
14892;SDS011;7538;53.626;9.906;2023-10-08T10:38:27;12.63;;;3.88;;
14892;SDS011;7538;53.626;9.906;2023-10-08T10:40:55;2.88;;;1.60;;
14892;SDS011;7538;53.626;9.906;2023-10-08T10:43:32;2.88;;;1.17;;
14892;SDS011;7538;53.626;9.906;2023-10-08T10:46:01;3.90;;;1.52;;
14892;SDS011;7538;53.626;9.906;2023-10-08T10:48:49;3.03;;;1.40;;
14892;SDS011;7538;53.626;9.906;2023-10-08T10:51:22;4.60;;;1.40;;
14892;SDS011;7538;53.626;9.906;2023-10-08T10:53:49;6.53;;;1.42;;
14892;SDS011;7538;53.626;9.906;2023-10-08T10:56:23;3.00;;;1.35;;
14892;SDS011;7538;53.626;9.906;2023-10-08T10:58:58;4.03;;;1.30;;
14892;SDS011;7538;53.626;9.906;2023-10-08T11:01:27;4.20;;;1.90;;
14892;SDS011;7538;53.626;9.906;2023-10-08T11:04:09;2.63;;;1.38;;
14892;SDS011;7538;53.626;9.906;2023-10-08T11:06:40;3.38;;;1.40;;
14892;SDS011;7538;53.626;9.906;2023-10-08T11:09:09;2.88;;;1.10;;
14892;SDS011;7538;53.626;9.906;2023-10-08T11:11:42;4.75;;;1.40;;
14892;SDS011;7538;53.626;9.906;2023-10-08T11:14:11;1.55;;;1.13;;
14892;SDS011;7538;53.626;9.906;2023-10-08T11:16:45;1.90;;;1.20;;
14892;SDS011;7538;53.626;9.906;2023-10-08T11:19:15;3.92;;;1.30;;
14892;SDS011;7538;53.626;9.906;2023-10-08T11:21:48;1.63;;;1.20;;
14892;SDS011;7538;53.626;9.906;2023-10-08T11:24:26;4.38;;;1.45;;
14892;SDS011;7538;53.626;9.906;2023-10-08T11:26:54;2.42;;;1.33;;
14892;SDS011;7538;53.626;9.906;2023-10-08T11:29:31;2.30;;;1.15;;
14892;SDS011;7538;53.626;9.906;2023-10-08T11:32:01;2.67;;;1.40;;
14892;SDS011;7538;53.626;9.906;2023-10-08T11:34:32;2.10;;;1.50;;
14892;SDS011;7538;53.626;9.906;2023-10-08T11:37:04;3.05;;;1.40;;
14892;SDS011;7538;53.626;9.906;2023-10-08T11:39:44;2.53;;;1.40;;
14892;SDS011;7538;53.626;9.906;2023-10-08T11:42:12;1.88;;;1.17;;
14892;SDS011;7538;53.626;9.906;2023-10-08T11:45:05;3.42;;;1.23;;
14892;SDS011;7538;53.626;9.906;2023-10-08T11:47:45;3.10;;;1.10;;
14892;SDS011;7538;53.626;9.906;2023-10-08T11:50:13;1.85;;;1.10;;
14892;SDS011;7538;53.626;9.906;2023-10-08T11:52:44;2.90;;;1.45;;
14892;SDS011;7538;53.626;9.906;2023-10-08T11:55:12;2.10;;;1.30;;
14892;SDS011;7538;53.626;9.906;2023-10-08T11:57:44;4.03;;;1.30;;
14892;SDS011;7538;53.626;9.906;2023-10-08T12:00:14;3.05;;;1.30;;
14892;SDS011;7538;53.626;9.906;2023-10-08T12:02:46;3.80;;;1.35;;
14892;SDS011;7538;53.626;9.906;2023-10-08T12:05:13;2.17;;;1.35;;
14892;SDS011;7538;53.626;9.906;2023-10-08T12:07:45;1.70;;;1.33;;
14892;SDS011;7538;53.626;9.906;2023-10-08T12:10:13;3.78;;;1.50;;
14892;SDS011;7538;53.626;9.906;2023-10-08T12:12:42;3.17;;;1.38;;
14892;SDS011;7538;53.626;9.906;2023-10-08T12:15:11;3.05;;;1.20;;
14892;SDS011;7538;53.626;9.906;2023-10-08T12:17:44;2.53;;;1.30;;
14892;SDS011;7538;53.626;9.906;2023-10-08T12:20:34;3.97;;;1.27;;
14892;SDS011;7538;53.626;9.906;2023-10-08T12:23:02;4.60;;;1.30;;
14892;SDS011;7538;53.626;9.906;2023-10-08T12:25:29;2.58;;;1.42;;
14892;SDS011;7538;53.626;9.906;2023-10-08T12:27:57;1.98;;;1.40;;
14892;SDS011;7538;53.626;9.906;2023-10-08T12:30:27;4.80;;;1.33;;
14892;SDS011;7538;53.626;9.906;2023-10-08T12:32:58;2.85;;;1.50;;
14892;SDS011;7538;53.626;9.906;2023-10-08T12:35:26;1.48;;;1.30;;
14892;SDS011;7538;53.626;9.906;2023-10-08T12:37:54;2.50;;;1.15;;
14892;SDS011;7538;53.626;9.906;2023-10-08T12:40:22;4.32;;;1.40;;
14892;SDS011;7538;53.626;9.906;2023-10-08T12:42:49;2.85;;;1.40;;
14892;SDS011;7538;53.626;9.906;2023-10-08T12:45:16;3.83;;;1.70;;
14892;SDS011;7538;53.626;9.906;2023-10-08T12:47:46;3.47;;;1.20;;
14892;SDS011;7538;53.626;9.906;2023-10-08T12:50:16;2.35;;;1.23;;
14892;SDS011;7538;53.626;9.906;2023-10-08T12:52:49;2.70;;;1.30;;
14892;SDS011;7538;53.626;9.906;2023-10-08T12:55:20;3.08;;;1.10;;
14892;SDS011;7538;53.626;9.906;2023-10-08T12:57:50;2.83;;;1.20;;
14892;SDS011;7538;53.626;9.906;2023-10-08T13:00:21;2.58;;;1.55;;
14892;SDS011;7538;53.626;9.906;2023-10-08T13:02:49;1.38;;;1.17;;
14892;SDS011;7538;53.626;9.906;2023-10-08T13:05:20;3.25;;;1.60;;
14892;SDS011;7538;53.626;9.906;2023-10-08T13:07:53;2.88;;;1.23;;
14892;SDS011;7538;53.626;9.906;2023-10-08T13:10:21;2.60;;;1.52;;
14892;SDS011;7538;53.626;9.906;2023-10-08T13:12:48;2.70;;;1.30;;
14892;SDS011;7538;53.626;9.906;2023-10-08T13:15:15;1.42;;;1.10;;
14892;SDS011;7538;53.626;9.906;2023-10-08T13:17:42;2.22;;;1.30;;
14892;SDS011;7538;53.626;9.906;2023-10-08T13:20:11;2.03;;;1.27;;
14892;SDS011;7538;53.626;9.906;2023-10-08T13:22:39;2.70;;;1.40;;
14892;SDS011;7538;53.626;9.906;2023-10-08T13:25:08;3.13;;;1.27;;
14892;SDS011;7538;53.626;9.906;2023-10-08T13:27:37;2.75;;;1.33;;
14892;SDS011;7538;53.626;9.906;2023-10-08T13:30:05;2.55;;;1.20;;
14892;SDS011;7538;53.626;9.906;2023-10-08T13:32:34;1.88;;;1.30;;
14892;SDS011;7538;53.626;9.906;2023-10-08T13:35:02;1.90;;;1.17;;
14892;SDS011;7538;53.626;9.906;2023-10-08T13:37:31;2.00;;;1.27;;
14892;SDS011;7538;53.626;9.906;2023-10-08T13:40:00;2.42;;;1.80;;
14892;SDS011;7538;53.626;9.906;2023-10-08T13:42:27;6.22;;;2.70;;
14892;SDS011;7538;53.626;9.906;2023-10-08T13:44:54;3.75;;;2.35;;
14892;SDS011;7538;53.626;9.906;2023-10-08T13:47:22;4.22;;;2.53;;
14892;SDS011;7538;53.626;9.906;2023-10-08T13:49:50;2.45;;;2.00;;
14892;SDS011;7538;53.626;9.906;2023-10-08T13:52:18;5.57;;;1.50;;
14892;SDS011;7538;53.626;9.906;2023-10-08T13:54:51;2.53;;;1.70;;
14892;SDS011;7538;53.626;9.906;2023-10-08T13:57:19;2.95;;;1.42;;
14892;SDS011;7538;53.626;9.906;2023-10-08T13:59:46;3.22;;;1.65;;
14892;SDS011;7538;53.626;9.906;2023-10-08T14:02:13;2.53;;;1.55;;
14892;SDS011;7538;53.626;9.906;2023-10-08T14:04:40;3.40;;;1.33;;
14892;SDS011;7538;53.626;9.906;2023-10-08T14:07:11;4.10;;;1.40;;
14892;SDS011;7538;53.626;9.906;2023-10-08T14:09:41;2.08;;;1.40;;
14892;SDS011;7538;53.626;9.906;2023-10-08T14:12:10;8.65;;;7.55;;
14892;SDS011;7538;53.626;9.906;2023-10-08T14:14:40;6.00;;;4.40;;
14892;SDS011;7538;53.626;9.906;2023-10-08T14:17:08;4.05;;;2.92;;
14892;SDS011;7538;53.626;9.906;2023-10-08T14:19:40;5.70;;;4.25;;
14892;SDS011;7538;53.626;9.906;2023-10-08T14:22:11;4.78;;;2.55;;
14892;SDS011;7538;53.626;9.906;2023-10-08T14:24:40;4.05;;;2.38;;
14892;SDS011;7538;53.626;9.906;2023-10-08T14:27:07;5.13;;;3.10;;
14892;SDS011;7538;53.626;9.906;2023-10-08T14:29:36;6.30;;;2.58;;
14892;SDS011;7538;53.626;9.906;2023-10-08T14:32:06;2.85;;;1.92;;
14892;SDS011;7538;53.626;9.906;2023-10-08T14:34:35;6.70;;;4.00;;
14892;SDS011;7538;53.626;9.906;2023-10-08T14:37:19;3.97;;;3.17;;
14892;SDS011;7538;53.626;9.906;2023-10-08T14:40:04;4.45;;;2.85;;
14892;SDS011;7538;53.626;9.906;2023-10-08T14:42:49;7.30;;;2.97;;
14892;SDS011;7538;53.626;9.906;2023-10-08T14:45:24;3.13;;;2.13;;
14892;SDS011;7538;53.626;9.906;2023-10-08T14:47:54;3.38;;;1.73;;
14892;SDS011;7538;53.626;9.906;2023-10-08T14:50:21;3.13;;;1.40;;
14892;SDS011;7538;53.626;9.906;2023-10-08T14:52:51;2.63;;;1.33;;
14892;SDS011;7538;53.626;9.906;2023-10-08T14:55:17;1.85;;;1.40;;
14892;SDS011;7538;53.626;9.906;2023-10-08T14:57:46;6.25;;;1.70;;
14892;SDS011;7538;53.626;9.906;2023-10-08T15:00:13;2.97;;;1.83;;
14892;SDS011;7538;53.626;9.906;2023-10-08T15:02:41;2.25;;;1.60;;
14892;SDS011;7538;53.626;9.906;2023-10-08T15:05:09;4.03;;;1.60;;
14892;SDS011;7538;53.626;9.906;2023-10-08T15:07:36;3.50;;;1.83;;
14892;SDS011;7538;53.626;9.906;2023-10-08T15:10:04;5.15;;;1.40;;
14892;SDS011;7538;53.626;9.906;2023-10-08T15:16:05;1.95;;;1.15;;
14892;SDS011;7538;53.626;9.906;2023-10-08T15:19:06;2.92;;;1.65;;
14892;SDS011;7538;53.626;9.906;2023-10-08T15:21:38;2.67;;;1.30;;
14892;SDS011;7538;53.626;9.906;2023-10-08T15:24:05;2.72;;;1.40;;
14892;SDS011;7538;53.626;9.906;2023-10-08T15:26:36;3.03;;;1.60;;
14892;SDS011;7538;53.626;9.906;2023-10-08T15:29:04;3.45;;;1.30;;
14892;SDS011;7538;53.626;9.906;2023-10-08T15:31:31;3.08;;;1.67;;
14892;SDS011;7538;53.626;9.906;2023-10-08T15:33:58;3.67;;;1.90;;
14892;SDS011;7538;53.626;9.906;2023-10-08T15:36:29;2.65;;;1.73;;
14892;SDS011;7538;53.626;9.906;2023-10-08T15:38:58;3.05;;;2.00;;
14892;SDS011;7538;53.626;9.906;2023-10-08T15:41:25;3.78;;;1.98;;
14892;SDS011;7538;53.626;9.906;2023-10-08T15:43:52;4.03;;;1.92;;